createdAt,value
2022-08-16T00:01:29.020Z,3.63
2022-08-16T00:04:05.089Z,3.20
2022-08-16T00:06:33.487Z,3.50
2022-08-16T00:09:01.635Z,3.60
2022-08-16T00:11:29.770Z,3.70
2022-08-16T00:13:58.155Z,3.40
2022-08-16T00:17:05.812Z,3.67
2022-08-16T00:19:22.793Z,3.43
2022-08-16T00:21:53.113Z,3.40
2022-08-16T00:24:32.718Z,3.63
2022-08-16T00:27:01.339Z,3.43
2022-08-16T00:29:30.812Z,3.73
2022-08-16T00:32:06.629Z,3.70
2022-08-16T00:34:44.698Z,3.60
2022-08-16T00:37:24.437Z,3.67
2022-08-16T00:39:58.591Z,4.20
2022-08-16T00:42:31.638Z,3.87
2022-08-16T00:45:08.482Z,3.40
2022-08-16T00:47:42.637Z,3.57
2022-08-16T00:50:17.377Z,3.73
2022-08-16T00:52:45.986Z,3.60
2022-08-16T00:55:21.898Z,4.00
2022-08-16T00:57:58.722Z,3.60
2022-08-16T01:00:30.627Z,3.63
2022-08-16T01:03:03.559Z,3.80
2022-08-16T01:05:32.791Z,3.80
2022-08-16T01:08:01.651Z,3.57
2022-08-16T01:10:33.538Z,3.57
2022-08-16T01:13:06.624Z,3.47
2022-08-16T01:15:35.270Z,3.33
2022-08-16T01:18:06.431Z,3.70
2022-08-16T01:20:37.053Z,3.43
2022-08-16T01:23:11.610Z,3.67
2022-08-16T01:25:44.264Z,3.20
2022-08-16T01:28:19.912Z,3.63
2022-08-16T01:30:50.808Z,3.83
2022-08-16T01:33:22.620Z,3.43
2022-08-16T01:35:56.195Z,3.60
2022-08-16T01:38:28.863Z,3.30
2022-08-16T01:41:03.018Z,3.67
2022-08-16T01:43:34.229Z,3.57
2022-08-16T01:46:38.204Z,3.50
2022-08-16T01:48:56.426Z,3.50
2022-08-16T01:51:26.223Z,3.80
2022-08-16T01:53:55.762Z,3.70
2022-08-16T01:56:31.487Z,3.40
2022-08-16T01:59:02.512Z,3.60
2022-08-16T02:01:32.887Z,3.57
2022-08-16T02:04:10.801Z,3.67
2022-08-16T02:06:46.020Z,4.03
2022-08-16T02:09:19.301Z,4.10
2022-08-16T02:11:54.074Z,3.60
2022-08-16T02:14:27.328Z,3.50
2022-08-16T02:16:59.353Z,3.70
2022-08-16T02:19:59.407Z,3.80
2022-08-16T02:22:34.252Z,4.13
2022-08-16T02:25:05.940Z,3.97
2022-08-16T02:27:35.679Z,3.63
2022-08-16T02:30:08.406Z,3.60
2022-08-16T02:32:50.007Z,3.60
2022-08-16T02:35:23.146Z,3.70
2022-08-16T02:37:52.947Z,4.13
2022-08-16T02:40:25.721Z,3.60
2022-08-16T02:42:55.835Z,4.30
2022-08-16T02:45:28.029Z,4.40
2022-08-16T02:48:01.409Z,3.80
2022-08-16T02:50:54.573Z,4.13
2022-08-16T02:53:35.597Z,3.83
2022-08-16T02:56:05.321Z,3.63
2022-08-16T02:58:39.691Z,4.10
2022-08-16T03:01:12.677Z,3.80
2022-08-16T03:04:41.365Z,3.63
2022-08-16T03:06:42.040Z,3.63
2022-08-16T03:09:21.722Z,4.00
2022-08-16T03:11:54.212Z,3.73
2022-08-16T03:14:24.873Z,3.70
2022-08-16T03:16:59.176Z,3.60
2022-08-16T03:19:48.770Z,3.73
2022-08-16T03:22:29.073Z,3.80
2022-08-16T03:25:07.599Z,3.87
2022-08-16T03:27:39.076Z,3.80
2022-08-16T03:30:17.917Z,3.43
2022-08-16T03:33:02.386Z,4.17
2022-08-16T03:35:40.240Z,3.70
2022-08-16T03:38:34.626Z,3.40
2022-08-16T03:41:17.136Z,3.63
2022-08-16T03:43:56.807Z,3.40
2022-08-16T03:46:47.658Z,3.40
2022-08-16T03:49:22.468Z,3.30
2022-08-16T03:51:52.610Z,3.40
2022-08-16T03:54:24.022Z,3.80
2022-08-16T03:56:58.618Z,3.60
2022-08-16T03:59:30.275Z,3.50
2022-08-16T04:02:12.117Z,3.40
2022-08-16T04:04:51.221Z,3.43
2022-08-16T04:07:19.223Z,3.57
2022-08-16T04:09:48.525Z,3.40
2022-08-16T04:12:54.432Z,3.90
2022-08-16T04:15:07.223Z,4.00
2022-08-16T04:17:42.003Z,3.43
2022-08-16T04:20:31.090Z,3.60
2022-08-16T04:23:03.530Z,4.00
2022-08-16T04:25:34.271Z,3.20
2022-08-16T04:28:51.571Z,4.03
2022-08-16T04:30:51.087Z,3.83
2022-08-16T04:33:27.318Z,3.77
2022-08-16T04:35:58.938Z,3.47
2022-08-16T04:38:28.877Z,4.07
2022-08-16T04:40:58.941Z,3.50
2022-08-16T04:43:28.335Z,3.40
2022-08-16T04:46:00.663Z,3.70
2022-08-16T04:48:34.807Z,3.47
2022-08-16T04:51:12.099Z,3.57
2022-08-16T04:53:48.703Z,3.80
2022-08-16T04:56:19.815Z,3.63
2022-08-16T04:58:48.539Z,3.90
2022-08-16T05:01:18.764Z,3.77
2022-08-16T05:04:01.434Z,4.27
2022-08-16T05:06:44.645Z,4.07
2022-08-16T05:09:18.892Z,3.60
2022-08-16T05:11:58.887Z,4.00
2022-08-16T05:14:45.866Z,4.20
2022-08-16T05:17:19.387Z,4.40
2022-08-16T05:19:57.393Z,4.40
2022-08-16T05:22:28.385Z,4.07
2022-08-16T05:24:58.194Z,4.37
2022-08-16T05:27:27.148Z,4.00
2022-08-16T05:29:59.390Z,3.93
2022-08-16T05:32:32.650Z,3.90
2022-08-16T05:35:16.898Z,4.20
2022-08-16T05:38:32.879Z,4.20
2022-08-16T05:41:02.104Z,4.17
2022-08-16T05:43:43.507Z,3.80
2022-08-16T05:46:30.227Z,4.30
2022-08-16T05:49:09.031Z,4.10
2022-08-16T05:51:41.688Z,3.90
2022-08-16T05:54:13.981Z,3.90
2022-08-16T05:56:43.272Z,3.90
2022-08-16T05:59:11.865Z,3.90
2022-08-16T06:01:41.151Z,3.70
2022-08-16T06:04:12.925Z,3.87
2022-08-16T06:06:56.783Z,3.60
2022-08-16T06:09:37.117Z,3.63
2022-08-16T06:12:12.846Z,3.67
2022-08-16T06:14:58.760Z,4.00
2022-08-16T06:17:42.609Z,3.40
2022-08-16T06:20:18.530Z,3.90
2022-08-16T06:22:57.401Z,3.90
2022-08-16T06:25:39.688Z,3.37
2022-08-16T06:28:17.234Z,3.90
2022-08-16T06:31:01.899Z,3.33
2022-08-16T06:33:41.592Z,3.27
2022-08-16T06:36:13.897Z,3.43
2022-08-16T06:38:55.506Z,3.60
2022-08-16T06:41:41.920Z,3.63
2022-08-16T06:44:21.443Z,3.60
2022-08-16T06:46:56.241Z,3.77
2022-08-16T06:49:25.382Z,3.87
2022-08-16T06:51:53.638Z,3.90
2022-08-16T06:54:35.767Z,4.20
2022-08-16T06:57:05.396Z,3.83
2022-08-16T06:59:52.765Z,4.23
2022-08-16T07:02:33.179Z,4.30
2022-08-16T07:05:04.013Z,3.63
2022-08-16T07:07:50.852Z,4.00
2022-08-16T07:10:25.783Z,4.07
2022-08-16T07:13:04.087Z,4.10
2022-08-16T07:15:38.120Z,3.90
2022-08-16T07:18:21.255Z,4.50
2022-08-16T07:20:53.863Z,4.70
2022-08-16T07:23:39.192Z,4.17
2022-08-16T07:26:25.399Z,4.20
2022-08-16T07:28:56.281Z,4.30
2022-08-16T07:31:24.589Z,3.90
2022-08-16T07:34:10.016Z,3.77
2022-08-16T07:36:39.072Z,3.97
2022-08-16T07:39:09.722Z,4.20
2022-08-16T07:41:41.486Z,3.70
2022-08-16T07:44:16.149Z,3.83
2022-08-16T07:46:46.520Z,3.53
2022-08-16T07:49:23.641Z,3.90
2022-08-16T07:51:55.913Z,3.80
2022-08-16T07:54:31.964Z,4.37
2022-08-16T07:57:11.448Z,4.27
2022-08-16T07:59:42.894Z,4.33
2022-08-16T08:02:19.765Z,3.83
2022-08-16T08:04:49.274Z,4.07
2022-08-16T08:07:17.455Z,4.00
2022-08-16T08:09:47.514Z,4.17
2022-08-16T08:12:32.495Z,4.40
2022-08-16T08:15:11.485Z,3.70
2022-08-16T08:17:43.965Z,4.00
2022-08-16T08:20:28.454Z,3.70
2022-08-16T08:23:01.079Z,4.10
2022-08-16T08:25:53.916Z,3.80
2022-08-16T08:28:25.624Z,4.00
2022-08-16T08:31:02.694Z,4.50
2022-08-16T08:33:35.812Z,3.90
2022-08-16T08:36:10.281Z,4.00
2022-08-16T08:38:43.593Z,3.70
2022-08-16T08:41:12.912Z,3.90
2022-08-16T08:43:43.055Z,3.90
2022-08-16T08:46:18.276Z,3.93
2022-08-16T08:48:59.174Z,3.90
2022-08-16T08:51:35.805Z,4.10
2022-08-16T08:54:09.340Z,3.80
2022-08-16T08:56:45.322Z,3.60
2022-08-16T08:59:41.643Z,4.07
2022-08-16T09:02:14.503Z,4.10
2022-08-16T09:04:51.669Z,3.60
2022-08-16T09:07:23.820Z,3.80
2022-08-16T09:10:06.214Z,4.00
2022-08-16T09:12:38.258Z,4.00
2022-08-16T09:15:14.871Z,4.40
2022-08-16T09:17:51.632Z,4.13
2022-08-16T09:20:23.618Z,3.93
2022-08-16T09:22:52.542Z,3.70
2022-08-16T09:25:33.753Z,3.93
2022-08-16T09:28:08.955Z,4.10
2022-08-16T09:30:45.184Z,3.63
2022-08-16T09:33:19.713Z,4.00
2022-08-16T09:35:53.877Z,3.77
2022-08-16T09:38:32.302Z,3.70
2022-08-16T09:41:01.915Z,4.60
2022-08-16T09:43:58.590Z,3.97
2022-08-16T09:46:44.464Z,4.30
2022-08-16T09:49:08.466Z,3.77
2022-08-16T09:51:37.500Z,3.60
2022-08-16T09:54:06.090Z,3.60
2022-08-16T09:56:39.360Z,3.80
2022-08-16T09:59:09.128Z,3.50
2022-08-16T10:01:43.553Z,4.37
2022-08-16T10:04:30.886Z,3.90
2022-08-16T10:07:15.576Z,3.87
2022-08-16T10:09:53.967Z,3.73
2022-08-16T10:12:43.244Z,3.70
2022-08-16T10:15:15.398Z,3.60
2022-08-16T10:17:59.966Z,3.77
2022-08-16T10:20:34.123Z,3.70
2022-08-16T10:23:07.102Z,3.70
2022-08-16T10:27:18.443Z,3.70
2022-08-16T10:28:31.864Z,3.47
2022-08-16T10:31:03.421Z,3.47
2022-08-16T10:33:34.083Z,3.23
2022-08-16T10:36:04.962Z,3.27
2022-08-16T10:38:36.696Z,3.43
2022-08-16T10:41:06.719Z,3.63
2022-08-16T10:43:35.966Z,3.60
2022-08-16T10:46:39.584Z,3.27
2022-08-16T10:48:53.895Z,3.80
2022-08-16T10:51:33.661Z,3.90
2022-08-16T10:54:28.451Z,3.40
2022-08-16T10:56:59.061Z,3.70
2022-08-16T10:59:32.822Z,3.60
2022-08-16T11:02:58.248Z,3.70
2022-08-16T11:05:12.231Z,3.30
2022-08-16T11:07:45.125Z,3.40
2022-08-16T11:19:06.191Z,3.30
2022-08-16T11:24:39.990Z,3.57
2022-08-16T11:27:23.508Z,3.37
2022-08-16T11:29:55.587Z,3.20
2022-08-16T11:32:31.985Z,3.70
2022-08-16T11:35:13.662Z,3.53
2022-08-16T11:40:40.790Z,3.47
2022-08-16T11:43:16.503Z,3.70
2022-08-16T11:45:54.148Z,3.30
2022-08-16T11:48:23.247Z,3.50
2022-08-16T11:50:51.400Z,3.57
2022-08-16T11:53:21.985Z,3.47
2022-08-16T11:55:50.748Z,3.30
2022-08-16T11:58:24.484Z,3.50
2022-08-16T12:00:53.705Z,3.50
2022-08-16T12:03:31.494Z,3.17
2022-08-16T12:06:11.160Z,3.33
2022-08-16T12:09:01.048Z,3.57
2022-08-16T12:11:31.710Z,3.67
2022-08-16T12:14:00.553Z,3.43
2022-08-16T12:16:31.403Z,3.60
2022-08-16T12:19:02.862Z,3.10
2022-08-16T12:21:35.783Z,3.50
2022-08-16T12:24:23.899Z,3.20
2022-08-16T12:26:52.576Z,3.70
2022-08-16T12:29:21.966Z,3.17
2022-08-16T12:32:01.133Z,3.10
2022-08-16T12:34:48.056Z,3.20
2022-08-16T12:37:20.838Z,3.13
2022-08-16T12:39:51.105Z,3.40
2022-08-16T12:42:20.847Z,3.50
2022-08-16T12:44:49.566Z,3.37
2022-08-16T12:47:36.026Z,3.20
2022-08-16T12:50:06.114Z,3.20
2022-08-16T12:52:41.361Z,3.43
2022-08-16T12:55:14.417Z,3.60
2022-08-16T12:57:42.866Z,3.40
2022-08-16T13:00:26.352Z,3.50
2022-08-16T13:02:56.975Z,3.10
2022-08-16T13:05:25.998Z,3.47
2022-08-16T13:07:55.376Z,3.20
2022-08-16T13:10:36.965Z,3.23
2022-08-16T13:13:06.645Z,3.63
2022-08-16T13:15:55.718Z,3.10
2022-08-16T13:18:34.013Z,3.57
2022-08-16T13:21:05.075Z,3.33
2022-08-16T13:23:33.461Z,3.10
2022-08-16T13:26:06.476Z,3.37
2022-08-16T13:28:36.201Z,3.10
2022-08-16T13:31:05.600Z,3.40
2022-08-16T13:33:37.271Z,3.53
2022-08-16T13:36:08.396Z,3.30
2022-08-16T13:38:49.430Z,3.30
2022-08-16T13:41:20.837Z,3.20
2022-08-16T13:43:50.935Z,3.00
2022-08-16T13:46:26.400Z,3.10
2022-08-16T13:48:54.590Z,3.10
2022-08-16T13:51:23.983Z,3.80
2022-08-16T13:53:59.948Z,3.20
2022-08-16T13:56:38.823Z,3.50
2022-08-16T13:59:14.206Z,3.50
2022-08-16T14:01:55.099Z,3.67
2022-08-16T14:04:27.290Z,3.00
2022-08-16T14:06:57.116Z,3.50
2022-08-16T14:09:27.196Z,3.40
2022-08-16T14:11:58.208Z,3.47
2022-08-16T14:14:30.204Z,3.13
2022-08-16T14:17:00.482Z,2.90
2022-08-16T14:19:30.076Z,3.00
2022-08-16T14:22:14.055Z,3.13
2022-08-16T14:24:45.173Z,3.27
2022-08-16T14:27:17.913Z,3.30
2022-08-16T14:29:49.466Z,3.17
2022-08-16T14:32:32.470Z,3.20
2022-08-16T14:35:03.330Z,3.50
2022-08-16T14:37:32.120Z,3.03
2022-08-16T14:40:00.970Z,3.03
2022-08-16T14:42:32.491Z,3.10
2022-08-16T14:45:05.921Z,3.00
2022-08-16T14:47:37.106Z,3.13
2022-08-16T14:50:05.950Z,3.07
2022-08-16T14:55:22.122Z,3.50
2022-08-16T14:57:54.379Z,2.73
2022-08-16T15:00:27.177Z,2.87
2022-08-16T15:03:05.817Z,3.00
2022-08-16T15:05:34.065Z,2.80
2022-08-16T15:08:04.093Z,2.83
2022-08-16T15:10:32.584Z,2.90
2022-08-16T15:13:02.119Z,3.10
2022-08-16T15:15:31.440Z,2.60
2022-08-16T15:18:01.757Z,2.97
2022-08-16T15:20:32.785Z,2.70
2022-08-16T15:23:02.648Z,3.13
2022-08-16T15:25:33.102Z,2.80
2022-08-16T15:28:05.498Z,3.22
2022-08-16T15:30:57.747Z,3.13
2022-08-16T15:33:25.351Z,3.20
2022-08-16T15:35:55.422Z,2.63
2022-08-16T15:38:55.239Z,2.78
2022-08-16T15:41:32.470Z,2.95
2022-08-16T15:44:05.520Z,2.67
2022-08-16T15:46:55.399Z,2.97
2022-08-16T15:49:38.053Z,2.72
2022-08-16T15:52:16.297Z,2.85
2022-08-16T15:54:53.305Z,2.97
2022-08-16T15:57:24.011Z,2.67
2022-08-16T15:59:56.006Z,2.67
2022-08-16T16:02:29.709Z,2.95
2022-08-16T16:05:01.526Z,3.10
2022-08-16T16:07:33.509Z,2.97
2022-08-16T16:10:02.816Z,2.70
2022-08-16T16:12:51.688Z,2.58
2022-08-16T16:15:24.548Z,2.70
2022-08-16T16:17:53.220Z,2.70
2022-08-16T16:20:22.048Z,3.58
2022-08-16T16:22:53.394Z,3.03
2022-08-16T16:25:25.045Z,2.78
2022-08-16T16:27:55.556Z,2.60
2022-08-16T16:30:38.222Z,3.10
2022-08-16T16:33:20.917Z,2.90
2022-08-16T16:35:55.524Z,2.72
2022-08-16T16:38:31.494Z,3.20
2022-08-16T16:41:02.119Z,2.78
2022-08-16T16:43:31.907Z,2.70
2022-08-16T16:46:32.822Z,2.75
2022-08-16T16:48:53.209Z,3.25
2022-08-16T16:51:22.207Z,3.17
2022-08-16T16:53:56.003Z,3.05
2022-08-16T16:56:31.432Z,3.40
2022-08-16T16:59:08.370Z,3.00
2022-08-16T17:01:59.531Z,3.20
2022-08-16T17:04:32.398Z,3.13
2022-08-16T17:07:02.499Z,3.10
2022-08-16T17:09:31.128Z,3.33
2022-08-16T17:11:59.573Z,3.40
2022-08-16T17:14:32.793Z,3.20
2022-08-16T17:17:17.993Z,3.10
2022-08-16T17:19:46.120Z,3.57
2022-08-16T17:22:20.304Z,3.60
2022-08-16T17:24:52.256Z,3.57
2022-08-16T17:27:33.050Z,3.13
2022-08-16T17:30:15.805Z,3.00
2022-08-16T17:32:54.634Z,3.23
2022-08-16T17:38:15.031Z,3.30
2022-08-16T17:39:28.223Z,3.30
2022-08-16T17:41:03.092Z,3.50
2022-08-16T17:43:34.855Z,3.50
2022-08-16T17:46:51.056Z,3.63
2022-08-16T17:48:58.920Z,3.50
2022-08-16T17:51:28.631Z,3.40
2022-08-16T17:53:57.024Z,3.40
2022-08-16T17:56:25.215Z,3.70
2022-08-16T17:58:53.397Z,4.00
2022-08-16T18:01:27.198Z,3.30
2022-08-16T18:04:06.615Z,3.43
2022-08-16T18:06:39.686Z,3.50
2022-08-16T18:09:08.936Z,3.40
2022-08-16T18:11:41.024Z,3.30
2022-08-16T18:14:13.648Z,3.47
2022-08-16T18:16:41.944Z,3.80
2022-08-16T18:19:10.309Z,3.40
2022-08-16T18:21:57.437Z,3.60
2022-08-16T18:24:31.032Z,3.93
2022-08-16T18:27:24.799Z,3.80
2022-08-16T18:29:49.947Z,4.77
2022-08-16T18:32:22.030Z,4.20
2022-08-16T18:34:54.441Z,3.40
2022-08-16T18:37:24.711Z,4.87
2022-08-16T18:39:52.884Z,3.83
2022-08-16T18:42:21.055Z,3.80
2022-08-16T18:44:49.200Z,4.07
2022-08-16T18:47:17.187Z,3.53
2022-08-16T18:49:45.413Z,3.93
2022-08-16T18:52:15.276Z,3.80
2022-08-16T18:55:02.851Z,3.90
2022-08-16T18:57:42.350Z,3.93
2022-08-16T19:00:13.171Z,3.83
2022-08-16T19:02:58.184Z,3.83
2022-08-16T19:05:29.219Z,3.67
2022-08-16T19:07:57.353Z,3.20
2022-08-16T19:10:26.772Z,3.50
2022-08-16T19:12:54.944Z,3.90
2022-08-16T19:15:25.949Z,3.50
2022-08-16T19:17:55.172Z,3.87
2022-08-16T19:20:26.276Z,3.40
2022-08-16T19:23:05.258Z,4.00
2022-08-16T19:25:47.514Z,4.13
2022-08-16T19:28:49.620Z,3.87
2022-08-16T19:31:10.942Z,4.27
2022-08-16T19:33:39.693Z,4.40
2022-08-16T19:36:11.654Z,4.30
2022-08-16T19:38:56.956Z,5.97
2022-08-16T19:41:34.660Z,5.87
2022-08-16T19:44:02.976Z,4.80
2022-08-16T19:46:31.908Z,4.40
2022-08-16T19:49:00.081Z,4.47
2022-08-16T19:51:28.383Z,4.00
2022-08-16T19:53:56.476Z,4.40
2022-08-16T19:56:25.893Z,3.80
2022-08-16T19:59:18.173Z,3.70
2022-08-16T20:01:43.924Z,3.80
2022-08-16T20:04:13.346Z,4.27
2022-08-16T20:06:41.603Z,4.17
2022-08-16T20:09:14.672Z,3.80
2022-08-16T20:11:43.898Z,4.43
2022-08-16T20:14:23.985Z,4.30
2022-08-16T20:16:57.609Z,3.90
2022-08-16T20:19:27.386Z,4.20
2022-08-16T20:21:57.242Z,4.17
2022-08-16T20:24:35.293Z,3.87
2022-08-16T20:27:06.108Z,3.90
2022-08-16T20:29:36.028Z,3.60
2022-08-16T20:32:04.901Z,3.97
2022-08-16T20:34:33.134Z,4.07
2022-08-16T20:37:01.325Z,4.03
2022-08-16T20:39:29.444Z,4.77
2022-08-16T20:41:57.537Z,4.20
2022-08-16T20:44:25.637Z,4.10
2022-08-16T20:46:55.641Z,3.90
2022-08-16T20:49:23.702Z,3.73
2022-08-16T20:51:57.244Z,4.17
2022-08-16T20:54:28.445Z,3.90
2022-08-16T20:56:56.595Z,3.90
2022-08-16T20:59:24.718Z,3.77
2022-08-16T21:01:52.786Z,3.90
2022-08-16T21:04:23.650Z,4.50
2022-08-16T21:06:53.953Z,3.93
2022-08-16T21:09:24.495Z,3.93
2022-08-16T21:11:54.595Z,3.90
2022-08-16T21:14:23.000Z,4.20
2022-08-16T21:16:51.151Z,3.93
2022-08-16T21:19:19.862Z,4.63
2022-08-16T21:21:49.535Z,4.70
2022-08-16T21:24:17.807Z,4.30
2022-08-16T21:26:55.404Z,4.80
2022-08-16T21:29:28.459Z,4.20
2022-08-16T21:32:10.651Z,4.70
2022-08-16T21:34:39.278Z,4.30
2022-08-16T21:37:08.751Z,4.50
2022-08-16T21:39:36.821Z,4.47
2022-08-16T21:42:09.324Z,4.17
2022-08-16T21:44:38.633Z,4.43
2022-08-16T21:47:08.155Z,4.13
2022-08-16T21:49:36.833Z,4.50
2022-08-16T21:52:05.627Z,3.90
2022-08-16T21:54:36.523Z,4.27
2022-08-16T21:57:10.202Z,3.93
2022-08-16T21:59:39.074Z,4.30
2022-08-16T22:02:07.477Z,4.17
2022-08-16T22:04:38.773Z,4.20
2022-08-16T22:07:07.791Z,4.30
2022-08-16T22:09:37.312Z,4.60
2022-08-16T22:12:06.406Z,4.27
2022-08-16T22:14:34.821Z,4.40
2022-08-16T22:17:02.955Z,4.77
2022-08-16T22:19:31.107Z,4.20
2022-08-16T22:22:01.249Z,4.63
2022-08-16T22:24:29.608Z,4.60
2022-08-16T22:26:59.195Z,4.80
2022-08-16T22:29:27.334Z,5.20
2022-08-16T22:31:55.752Z,4.60
2022-08-16T22:34:24.160Z,4.53
2022-08-16T22:36:53.681Z,4.67
2022-08-16T22:39:21.728Z,5.27
2022-08-16T22:41:50.428Z,4.73
2022-08-16T22:44:20.606Z,4.73
2022-08-16T22:46:48.772Z,4.30
2022-08-16T22:49:17.097Z,4.77
2022-08-16T22:51:45.178Z,4.70
2022-08-16T22:54:41.296Z,4.60
2022-08-16T22:57:01.255Z,5.33
2022-08-16T22:59:31.999Z,4.47
2022-08-16T23:02:00.532Z,4.50
2022-08-16T23:04:28.751Z,4.30
2022-08-16T23:06:57.176Z,4.77
2022-08-16T23:09:25.680Z,5.17
2022-08-16T23:11:53.799Z,4.77
2022-08-16T23:14:21.977Z,4.87
2022-08-16T23:16:51.631Z,4.40
2022-08-16T23:19:19.702Z,5.20
2022-08-16T23:21:49.346Z,4.93
2022-08-16T23:24:19.428Z,5.37
2022-08-16T23:26:49.408Z,5.23
2022-08-16T23:29:24.891Z,5.10
2022-08-16T23:32:09.768Z,4.70
2022-08-16T23:34:37.859Z,5.70
2022-08-16T23:37:06.801Z,4.20
2022-08-16T23:39:35.879Z,5.10
2022-08-16T23:42:12.551Z,5.20
2022-08-16T23:44:57.175Z,5.20
2022-08-16T23:47:28.191Z,4.67
2022-08-16T23:50:03.131Z,4.63
2022-08-16T23:52:39.431Z,4.77
2022-08-16T23:55:20.560Z,4.60
2022-08-16T23:57:49.216Z,4.90
